createdAt,value
2019-05-14T00:02:21.439Z,87.90
2019-05-14T00:04:51.130Z,88.55
2019-05-14T00:07:18.840Z,89.19
2019-05-14T00:09:46.774Z,88.80
2019-05-14T00:12:14.730Z,88.92
2019-05-14T00:14:43.800Z,89.76
2019-05-14T00:17:12.044Z,90.50
2019-05-14T00:19:41.879Z,90.41
2019-05-14T00:22:11.595Z,90.37
2019-05-14T00:24:41.574Z,90.62
2019-05-14T00:27:11.410Z,90.66
2019-05-14T00:29:41.438Z,90.90
2019-05-14T00:32:11.098Z,90.52
2019-05-14T00:34:38.526Z,91.20
2019-05-14T00:37:06.484Z,90.71
2019-05-14T00:39:34.401Z,91.42
2019-05-14T00:42:02.352Z,92.41
2019-05-14T00:44:32.312Z,92.48
2019-05-14T00:47:01.986Z,91.91
2019-05-14T00:49:31.691Z,92.19
2019-05-14T00:51:59.366Z,93.22
2019-05-14T00:54:27.351Z,93.00
2019-05-14T00:56:55.304Z,93.18
2019-05-14T00:59:23.201Z,93.45
2019-05-14T01:01:51.635Z,93.73
2019-05-14T01:04:22.103Z,94.32
2019-05-14T01:06:51.151Z,93.76
2019-05-14T01:09:19.320Z,93.82
2019-05-14T01:11:48.328Z,94.45
2019-05-14T01:14:16.291Z,94.10
2019-05-14T01:16:44.305Z,94.61
2019-05-14T01:19:15.313Z,94.70
2019-05-14T01:21:43.554Z,95.58
2019-05-14T01:24:12.553Z,95.01
2019-05-14T01:26:41.601Z,95.98
2019-05-14T01:29:12.017Z,96.37
2019-05-14T01:31:41.610Z,96.41
2019-05-14T01:34:11.208Z,96.12
2019-05-14T01:36:41.198Z,95.44
2019-05-14T01:39:08.785Z,95.60
2019-05-14T01:41:36.701Z,96.31
2019-05-14T01:44:04.697Z,96.41
2019-05-14T01:46:32.624Z,96.12
2019-05-14T01:49:01.552Z,95.65
2019-05-14T01:51:31.542Z,97.07
2019-05-14T01:54:01.484Z,96.87
2019-05-14T01:56:31.733Z,96.82
2019-05-14T01:59:01.485Z,97.12
2019-05-14T02:01:31.339Z,97.22
2019-05-14T02:03:58.610Z,97.00
2019-05-14T02:06:26.598Z,96.91
2019-05-14T02:08:57.945Z,97.52
2019-05-14T02:11:26.443Z,97.87
2019-05-14T02:14:02.386Z,98.48
2019-05-14T02:16:31.381Z,97.96
2019-05-14T02:19:01.361Z,98.49
2019-05-14T02:21:31.696Z,98.50
2019-05-14T02:23:59.238Z,98.32
2019-05-14T02:26:27.225Z,99.06
2019-05-14T02:28:55.588Z,98.81
2019-05-14T02:31:23.624Z,98.83
2019-05-14T02:33:51.837Z,99.33
2019-05-14T02:36:20.063Z,100.00
2019-05-14T02:38:49.340Z,100.00
2019-05-14T02:41:32.877Z,100.00
2019-05-14T02:44:41.409Z,99.79
2019-05-14T02:47:10.365Z,99.63
2019-05-14T02:49:39.866Z,99.69
2019-05-14T02:52:10.038Z,99.97
2019-05-14T02:54:40.471Z,100.00
2019-05-14T02:57:10.459Z,100.00
2019-05-14T02:59:39.375Z,100.00
2019-05-14T03:02:09.923Z,100.00
2019-05-14T03:04:39.478Z,100.00
2019-05-14T03:07:11.370Z,100.00
2019-05-14T03:09:40.340Z,100.00
2019-05-14T03:12:10.096Z,100.00
2019-05-14T03:14:39.593Z,100.00
2019-05-14T03:17:10.559Z,100.00
2019-05-14T03:19:40.750Z,100.00
2019-05-14T03:22:10.081Z,100.00
2019-05-14T03:24:40.271Z,100.00
2019-05-14T03:27:09.751Z,100.00
2019-05-14T03:29:39.889Z,100.00
2019-05-14T03:32:13.308Z,100.00
2019-05-14T03:34:43.325Z,100.00
2019-05-14T03:37:13.008Z,100.00
2019-05-14T03:39:42.501Z,100.00
2019-05-14T03:42:10.869Z,100.00
2019-05-14T03:44:40.014Z,100.00
2019-05-14T03:47:19.813Z,100.00
2019-05-14T03:49:49.785Z,100.00
2019-05-14T03:52:20.019Z,100.00
2019-05-14T03:54:50.147Z,100.00
2019-05-14T03:57:20.081Z,100.00
2019-05-14T03:59:49.812Z,100.00
2019-05-14T04:02:25.357Z,100.00
2019-05-14T04:04:55.841Z,100.00
2019-05-14T04:07:23.812Z,100.00
2019-05-14T04:09:52.920Z,100.00
2019-05-14T04:12:23.917Z,100.00
2019-05-14T04:14:53.336Z,100.00
2019-05-14T04:17:32.453Z,100.00
2019-05-14T04:19:53.086Z,100.00
2019-05-14T04:22:39.823Z,100.00
2019-05-14T04:25:10.833Z,100.00
2019-05-14T04:27:40.358Z,100.00
2019-05-14T04:30:10.316Z,100.00
2019-05-14T04:32:40.460Z,100.00
2019-05-14T04:35:09.556Z,100.00
2019-05-14T04:37:39.974Z,100.00
2019-05-14T04:40:10.047Z,100.00
2019-05-14T04:42:40.226Z,100.00
2019-05-14T04:45:10.560Z,100.00
2019-05-14T04:47:40.940Z,100.00
2019-05-14T04:50:10.247Z,100.00
2019-05-14T04:52:36.203Z,100.00
2019-05-14T04:55:04.456Z,100.00
2019-05-14T04:57:32.331Z,100.00
2019-05-14T05:00:00.299Z,100.00
2019-05-14T05:02:30.098Z,100.00
2019-05-14T05:04:59.421Z,100.00
2019-05-14T05:07:29.720Z,100.00
2019-05-14T05:09:59.290Z,100.00
2019-05-14T05:12:29.613Z,100.00
2019-05-14T05:14:58.675Z,100.00
2019-05-14T05:17:43.002Z,100.00
2019-05-14T05:19:59.079Z,100.00
2019-05-14T05:22:28.463Z,100.00
2019-05-14T05:24:55.637Z,100.00
2019-05-14T05:27:23.555Z,100.00
2019-05-14T05:29:51.425Z,100.00
2019-05-14T05:32:19.644Z,100.00
2019-05-14T05:34:48.394Z,100.00
2019-05-14T05:37:18.823Z,100.00
2019-05-14T05:39:45.971Z,100.00
2019-05-14T05:42:14.288Z,100.00
2019-05-14T05:44:42.340Z,100.00
2019-05-14T05:47:10.240Z,100.00
2019-05-14T05:49:38.361Z,100.00
2019-05-14T05:52:08.549Z,100.00
2019-05-14T05:54:38.216Z,100.00
2019-05-14T05:57:06.095Z,100.00
2019-05-14T05:59:34.087Z,100.00
2019-05-14T06:02:02.121Z,99.06
2019-05-14T06:04:31.444Z,98.40
2019-05-14T06:07:02.526Z,97.73
2019-05-14T06:09:29.056Z,97.25
2019-05-14T06:11:59.019Z,96.71
2019-05-14T06:14:28.972Z,96.19
2019-05-14T06:16:56.259Z,97.32
2019-05-14T06:19:24.176Z,95.65
2019-05-14T06:21:52.170Z,95.07
2019-05-14T06:24:20.260Z,94.13
2019-05-14T06:26:49.069Z,94.31
2019-05-14T06:29:18.684Z,93.14
2019-05-14T06:31:49.364Z,92.71
2019-05-14T06:34:18.623Z,91.11
2019-05-14T06:36:48.626Z,93.40
2019-05-14T06:39:18.100Z,90.76
2019-05-14T06:41:45.689Z,88.09
2019-05-14T06:44:13.707Z,88.23
2019-05-14T06:46:41.610Z,86.21
2019-05-14T06:49:09.732Z,86.93
2019-05-14T06:51:39.488Z,87.25
2019-05-14T06:54:09.244Z,87.74
2019-05-14T06:56:38.620Z,85.45
2019-05-14T06:59:08.964Z,82.71
2019-05-14T07:01:38.475Z,82.23
2019-05-14T07:04:08.413Z,82.25
2019-05-14T07:06:35.778Z,79.83
2019-05-14T07:09:08.016Z,80.80
2019-05-14T07:11:35.109Z,78.35
2019-05-14T07:14:03.190Z,80.85
2019-05-14T07:16:31.089Z,80.78
2019-05-14T07:18:59.324Z,81.13
2019-05-14T07:21:29.174Z,82.95
2019-05-14T07:23:59.337Z,83.60
2019-05-14T07:26:29.337Z,83.05
2019-05-14T07:28:58.915Z,79.50
2019-05-14T07:31:25.985Z,79.03
2019-05-14T07:33:53.932Z,80.63
2019-05-14T07:36:21.925Z,80.02
2019-05-14T07:38:49.829Z,78.44
2019-05-14T07:41:19.257Z,78.28
2019-05-14T07:43:48.293Z,75.86
2019-05-14T07:46:18.854Z,74.60
2019-05-14T07:49:03.259Z,72.47
2019-05-14T07:51:15.813Z,71.83
2019-05-14T07:53:43.876Z,70.51
2019-05-14T07:56:11.865Z,70.97
2019-05-14T07:58:39.839Z,68.38
2019-05-14T08:01:09.467Z,68.65
2019-05-14T08:03:38.279Z,69.51
2019-05-14T08:06:08.436Z,65.98
2019-05-14T08:08:38.564Z,66.66
2019-05-14T08:11:08.426Z,65.75
2019-05-14T08:13:35.769Z,62.93
2019-05-14T08:16:03.801Z,66.93
2019-05-14T08:18:31.677Z,67.24
2019-05-14T08:20:59.599Z,66.97
2019-05-14T08:23:28.226Z,65.84
2019-05-14T08:25:58.504Z,65.21
2019-05-14T08:28:26.358Z,65.06
2019-05-14T08:30:54.316Z,64.92
2019-05-14T08:33:22.231Z,63.43
2019-05-14T08:35:50.164Z,61.20
2019-05-14T08:38:18.573Z,60.06
2019-05-14T08:40:48.687Z,60.35
2019-05-14T08:43:18.308Z,59.71
2019-05-14T08:45:48.456Z,58.98
2019-05-14T08:48:15.680Z,59.87
2019-05-14T08:50:43.656Z,60.78
2019-05-14T08:53:11.647Z,57.62
2019-05-14T08:55:39.640Z,54.69
2019-05-14T08:58:13.400Z,57.01
2019-05-14T09:00:38.702Z,55.43
2019-05-14T09:03:08.495Z,54.01
2019-05-14T09:05:38.565Z,53.36
2019-05-14T09:08:08.641Z,53.75
2019-05-14T09:10:35.849Z,53.18
2019-05-14T09:13:03.853Z,55.14
2019-05-14T09:15:31.763Z,57.21
2019-05-14T09:18:03.538Z,58.01
2019-05-14T09:20:31.026Z,58.41
2019-05-14T09:22:59.598Z,57.76
2019-05-14T09:25:29.204Z,53.82
2019-05-14T09:27:58.631Z,54.43
2019-05-14T09:30:28.984Z,57.20
2019-05-14T09:32:59.173Z,57.66
2019-05-14T09:35:29.084Z,56.04
2019-05-14T09:37:55.923Z,54.44
2019-05-14T09:40:23.839Z,53.67
2019-05-14T09:42:51.759Z,52.36
2019-05-14T09:45:19.717Z,51.30
2019-05-14T09:47:50.583Z,52.72
2019-05-14T09:50:22.750Z,49.70
2019-05-14T09:52:49.224Z,49.74
2019-05-14T09:55:18.136Z,51.39
2019-05-14T09:57:46.304Z,49.49
2019-05-14T10:00:14.752Z,49.08
2019-05-14T10:02:42.818Z,47.58
2019-05-14T10:05:10.807Z,47.29
2019-05-14T10:07:39.391Z,46.24
2019-05-14T10:10:07.599Z,47.29
2019-05-14T10:12:47.695Z,45.97
2019-05-14T10:15:08.784Z,45.44
2019-05-14T10:17:39.324Z,45.71
2019-05-14T10:20:08.821Z,44.96
2019-05-14T10:22:36.089Z,43.57
2019-05-14T10:25:04.440Z,45.95
2019-05-14T10:27:32.353Z,44.44
2019-05-14T10:30:00.333Z,44.85
2019-05-14T10:32:29.493Z,44.38
2019-05-14T10:34:58.975Z,47.22
2019-05-14T10:37:28.829Z,44.04
2019-05-14T10:39:58.614Z,43.55
2019-05-14T10:42:28.819Z,43.90
2019-05-14T10:44:58.493Z,40.27
2019-05-14T10:47:25.569Z,39.46
2019-05-14T10:49:53.509Z,39.93
2019-05-14T10:52:23.000Z,39.71
2019-05-14T10:54:56.074Z,40.48
2019-05-14T10:57:20.532Z,39.08
2019-05-14T10:59:48.480Z,40.60
2019-05-14T11:02:18.606Z,37.77
2019-05-14T11:04:48.207Z,39.83
2019-05-14T11:07:15.676Z,38.61
2019-05-14T11:09:43.612Z,39.28
2019-05-14T11:12:11.532Z,38.61
2019-05-14T11:14:39.456Z,39.41
2019-05-14T11:17:11.584Z,38.06
2019-05-14T11:19:38.946Z,39.67
2019-05-14T11:22:08.488Z,38.99
2019-05-14T11:24:38.633Z,40.69
2019-05-14T11:27:06.205Z,37.87
2019-05-14T11:29:34.232Z,39.27
2019-05-14T11:32:02.174Z,40.19
2019-05-14T11:34:30.059Z,40.81
2019-05-14T11:36:58.984Z,40.79
2019-05-14T11:39:28.817Z,39.98
2019-05-14T11:41:59.079Z,40.82
2019-05-14T11:44:28.616Z,39.42
2019-05-14T11:46:58.043Z,38.66
2019-05-14T11:49:25.909Z,37.98
2019-05-14T11:52:04.166Z,38.44
2019-05-14T11:54:23.597Z,38.80
2019-05-14T11:56:51.512Z,38.92
2019-05-14T11:59:19.507Z,37.52
2019-05-14T12:01:49.367Z,39.54
2019-05-14T12:04:18.788Z,37.35
2019-05-14T12:06:46.888Z,37.36
2019-05-14T12:09:14.763Z,36.61
2019-05-14T12:11:42.780Z,36.34
2019-05-14T12:14:10.752Z,37.97
2019-05-14T12:16:40.105Z,36.43
2019-05-14T12:19:11.828Z,38.64
2019-05-14T12:21:39.784Z,40.73
2019-05-14T12:24:13.399Z,37.01
2019-05-14T12:26:38.562Z,38.51
2019-05-14T12:29:09.617Z,39.27
2019-05-14T12:31:38.667Z,38.21
2019-05-14T12:34:06.273Z,37.94
2019-05-14T12:36:34.174Z,37.95
2019-05-14T12:39:02.143Z,35.21
2019-05-14T12:41:30.125Z,35.45
2019-05-14T12:43:58.976Z,36.40
2019-05-14T12:46:29.227Z,35.57
2019-05-14T12:48:58.945Z,34.72
2019-05-14T12:51:26.342Z,35.25
2019-05-14T12:53:54.297Z,38.00
2019-05-14T12:56:22.305Z,34.81
2019-05-14T12:58:50.274Z,37.46
2019-05-14T13:01:20.107Z,36.95
2019-05-14T13:03:48.484Z,38.03
2019-05-14T13:06:19.139Z,36.00
2019-05-14T13:08:48.951Z,38.97
2019-05-14T13:11:15.946Z,36.27
2019-05-14T13:13:43.881Z,36.35
2019-05-14T13:16:11.832Z,35.68
2019-05-14T13:18:39.780Z,34.54
2019-05-14T13:21:07.759Z,34.31
2019-05-14T13:23:38.077Z,35.05
2019-05-14T13:26:05.295Z,34.79
2019-05-14T13:28:33.233Z,36.03
2019-05-14T13:31:01.110Z,34.36
2019-05-14T13:33:29.059Z,33.37
2019-05-14T13:35:59.354Z,34.22
2019-05-14T13:38:27.282Z,34.51
2019-05-14T13:40:55.346Z,34.80
2019-05-14T13:43:23.357Z,33.88
2019-05-14T13:45:51.260Z,35.14
2019-05-14T13:48:19.247Z,35.40
2019-05-14T13:50:49.110Z,34.73
2019-05-14T13:53:18.950Z,37.53
2019-05-14T13:55:50.758Z,36.48
2019-05-14T13:58:20.403Z,35.62
2019-05-14T14:00:51.631Z,36.45
2019-05-14T14:03:15.668Z,38.47
2019-05-14T14:05:43.665Z,37.35
2019-05-14T14:08:11.601Z,36.12
2019-05-14T14:10:44.903Z,33.52
2019-05-14T14:13:11.181Z,33.87
2019-05-14T14:15:39.145Z,34.93
2019-05-14T14:18:07.086Z,35.59
2019-05-14T14:20:35.056Z,32.65
2019-05-14T14:23:17.527Z,37.76
2019-05-14T14:25:32.579Z,36.30
2019-05-14T14:28:00.628Z,35.88
2019-05-14T14:30:28.684Z,34.31
2019-05-14T14:32:58.705Z,33.72
2019-05-14T14:35:30.213Z,34.27
2019-05-14T14:37:58.963Z,34.29
2019-05-14T14:40:25.756Z,33.48
2019-05-14T14:42:53.705Z,32.76
2019-05-14T14:45:22.073Z,33.08
2019-05-14T14:47:50.208Z,33.77
2019-05-14T14:50:19.384Z,33.54
2019-05-14T14:52:49.581Z,33.78
2019-05-14T14:55:19.352Z,33.01
2019-05-14T14:57:53.445Z,34.76
2019-05-14T15:00:19.182Z,34.73
2019-05-14T15:02:49.367Z,33.51
2019-05-14T15:05:19.713Z,35.33
2019-05-14T15:07:49.793Z,34.97
2019-05-14T15:10:16.102Z,34.65
2019-05-14T15:12:44.034Z,33.52
2019-05-14T15:15:12.116Z,34.16
2019-05-14T15:17:40.021Z,35.44
2019-05-14T15:20:10.507Z,33.01
2019-05-14T15:22:37.773Z,35.83
2019-05-14T15:25:05.754Z,34.66
2019-05-14T15:27:33.689Z,36.17
2019-05-14T15:30:01.685Z,34.93
2019-05-14T15:32:30.189Z,33.69
2019-05-14T15:34:59.261Z,34.28
2019-05-14T15:37:31.253Z,33.77
2019-05-14T15:39:57.360Z,33.39
2019-05-14T15:42:25.346Z,33.85
2019-05-14T15:44:56.047Z,34.40
2019-05-14T15:47:22.999Z,33.98
2019-05-14T15:49:50.989Z,35.54
2019-05-14T15:52:19.425Z,35.10
2019-05-14T15:54:50.461Z,35.20
2019-05-14T15:57:19.268Z,34.45
2019-05-14T15:59:46.860Z,35.98
2019-05-14T16:02:14.821Z,35.46
2019-05-14T16:04:42.830Z,36.74
2019-05-14T16:07:11.814Z,34.83
2019-05-14T16:09:40.008Z,36.15
2019-05-14T16:12:09.595Z,34.69
2019-05-14T16:14:38.787Z,34.64
2019-05-14T16:17:11.292Z,35.36
2019-05-14T16:19:39.041Z,35.24
2019-05-14T16:22:06.277Z,34.12
2019-05-14T16:24:34.341Z,36.19
2019-05-14T16:27:02.282Z,37.14
2019-05-14T16:29:41.299Z,34.97
2019-05-14T16:32:00.009Z,35.09
2019-05-14T16:34:28.691Z,35.09
2019-05-14T16:36:58.464Z,35.70
2019-05-14T16:39:28.485Z,36.17
2019-05-14T16:41:58.235Z,35.57
2019-05-14T16:44:28.132Z,34.40
2019-05-14T16:46:55.532Z,35.02
2019-05-14T16:49:23.515Z,35.57
2019-05-14T16:51:51.460Z,36.90
2019-05-14T16:54:19.523Z,36.58
2019-05-14T16:56:48.332Z,36.30
2019-05-14T16:59:18.491Z,36.66
2019-05-14T17:01:46.037Z,35.07
2019-05-14T17:04:13.956Z,36.24
2019-05-14T17:06:41.971Z,36.03
2019-05-14T17:09:09.937Z,36.47
2019-05-14T17:11:39.079Z,36.78
2019-05-14T17:14:08.692Z,36.45
2019-05-14T17:16:36.978Z,36.68
2019-05-14T17:19:04.982Z,36.10
2019-05-14T17:21:32.918Z,38.02
2019-05-14T17:24:00.896Z,37.55
2019-05-14T17:26:28.881Z,37.72
2019-05-14T17:28:59.464Z,36.96
2019-05-14T17:31:26.717Z,37.68
2019-05-14T17:33:54.844Z,38.21
2019-05-14T17:36:22.772Z,38.13
2019-05-14T17:38:50.785Z,37.81
2019-05-14T17:41:19.445Z,38.25
2019-05-14T17:43:49.277Z,38.79
2019-05-14T17:46:18.396Z,37.84
2019-05-14T17:48:48.639Z,37.98
2019-05-14T17:51:18.087Z,37.05
2019-05-14T17:53:48.134Z,38.44
2019-05-14T17:56:15.989Z,37.55
2019-05-14T17:58:44.885Z,38.39
2019-05-14T18:01:14.110Z,39.74
2019-05-14T18:03:42.144Z,38.45
2019-05-14T18:06:10.033Z,39.20
2019-05-14T18:08:38.037Z,38.99
2019-05-14T18:11:08.540Z,37.89
2019-05-14T18:13:35.869Z,38.20
2019-05-14T18:16:03.845Z,38.57
2019-05-14T18:18:33.301Z,39.88
2019-05-14T18:21:01.274Z,39.26
2019-05-14T18:23:29.276Z,40.31
2019-05-14T18:26:07.134Z,39.43
2019-05-14T18:28:28.827Z,40.27
2019-05-14T18:30:58.856Z,40.54
2019-05-14T18:33:30.783Z,42.48
2019-05-14T18:35:58.764Z,41.96
2019-05-14T18:38:25.925Z,42.81
2019-05-14T18:40:53.818Z,41.08
2019-05-14T18:43:21.756Z,42.95
2019-05-14T18:45:50.444Z,43.62
2019-05-14T18:59:40.654Z,43.91
2019-05-14T19:02:09.682Z,40.66
2019-05-14T19:04:38.821Z,40.66
2019-05-14T19:07:07.903Z,46.66
2019-05-14T19:09:38.846Z,45.44
2019-05-14T19:12:08.329Z,47.91
2019-05-14T19:14:39.027Z,48.91
2019-05-14T19:17:09.764Z,48.31
2019-05-14T19:19:38.873Z,49.70
2019-05-14T19:22:07.986Z,49.70
2019-05-14T19:24:38.282Z,50.28
2019-05-14T19:27:09.131Z,52.75
2019-05-14T19:29:38.741Z,52.12
2019-05-14T19:32:08.287Z,52.12
2019-05-14T19:34:38.175Z,52.56
2019-05-14T19:37:08.300Z,53.70
2019-05-14T19:39:38.645Z,53.81
2019-05-14T19:42:08.661Z,54.62
2019-05-14T19:44:40.171Z,55.58
2019-05-14T19:47:09.065Z,55.71
2019-05-14T19:49:38.411Z,56.90
2019-05-14T19:52:08.186Z,56.72
2019-05-14T19:54:38.432Z,56.72
2019-05-14T19:57:09.999Z,57.77
2019-05-14T19:59:38.832Z,57.24
2019-05-14T20:02:09.495Z,57.90
2019-05-14T20:04:38.933Z,59.48
2019-05-14T20:07:08.981Z,59.48
2019-05-14T20:09:38.807Z,59.59
2019-05-14T20:12:07.963Z,59.42
2019-05-14T20:14:39.283Z,61.03
2019-05-14T20:17:08.970Z,59.53
2019-05-14T20:19:39.616Z,59.53
2019-05-14T20:22:08.954Z,58.10
2019-05-14T20:24:41.418Z,58.56
2019-05-14T20:27:12.132Z,58.45
2019-05-14T20:29:39.487Z,58.63
2019-05-14T20:32:08.782Z,58.01
2019-05-14T20:34:37.758Z,57.31
2019-05-14T20:37:08.525Z,57.69
2019-05-14T20:39:39.139Z,57.04
2019-05-14T20:42:09.622Z,57.80
2019-05-14T20:44:38.844Z,58.58
2019-05-14T20:47:09.114Z,59.63
2019-05-14T20:49:38.427Z,59.18
2019-05-14T20:52:08.852Z,59.80
2019-05-14T20:54:37.978Z,61.91
2019-05-14T20:57:22.629Z,61.58
2019-05-14T20:59:38.955Z,60.83
2019-05-14T21:02:08.549Z,61.65
2019-05-14T21:04:37.616Z,62.61
2019-05-14T21:07:08.328Z,63.24
2019-05-14T21:09:38.587Z,63.24
2019-05-14T21:12:08.422Z,63.31
2019-05-14T21:14:41.060Z,64.25
2019-05-14T21:17:08.739Z,64.70
2019-05-14T21:19:38.105Z,64.70
2019-05-14T21:22:08.431Z,66.42
2019-05-14T21:24:39.186Z,66.52
2019-05-14T21:27:09.284Z,67.05
2019-05-14T21:29:38.635Z,67.57
2019-05-14T21:32:08.241Z,67.95
2019-05-14T21:34:38.333Z,68.42
2019-05-14T21:37:09.042Z,68.42
2019-05-14T21:39:40.871Z,69.55
2019-05-14T21:42:10.914Z,70.26
2019-05-14T21:44:40.247Z,71.43
2019-05-14T21:47:09.278Z,70.91
2019-05-14T21:49:38.997Z,70.91
2019-05-14T21:52:09.021Z,72.10
2019-05-14T21:54:39.535Z,70.80
2019-05-14T21:57:11.744Z,71.42
2019-05-14T21:59:39.615Z,72.79
2019-05-14T22:02:09.265Z,73.01
2019-05-14T22:04:38.680Z,73.52
2019-05-14T22:07:09.066Z,73.52
2019-05-14T22:09:41.146Z,74.51
2019-05-14T22:12:12.006Z,74.95
2019-05-14T22:14:41.055Z,74.95
2019-05-14T22:17:10.122Z,76.27
2019-05-14T22:19:39.247Z,75.88
2019-05-14T22:22:08.394Z,75.88
2019-05-14T22:24:38.397Z,76.29
2019-05-14T22:27:09.379Z,77.22
2019-05-14T22:29:38.596Z,77.11
2019-05-14T22:32:08.215Z,77.11
2019-05-14T22:34:38.492Z,77.51
2019-05-14T22:37:08.425Z,78.29
2019-05-14T22:39:39.061Z,78.02
2019-05-14T22:42:09.197Z,78.66
2019-05-14T22:44:38.558Z,78.62
2019-05-14T22:47:08.159Z,78.62
2019-05-14T22:49:37.458Z,78.98
2019-05-14T22:52:08.368Z,78.50
2019-05-14T22:54:38.628Z,79.29
2019-05-14T22:57:08.124Z,79.35
2019-05-14T22:59:39.211Z,79.81
2019-05-14T23:02:11.114Z,79.91
2019-05-14T23:04:38.725Z,80.60
2019-05-14T23:07:08.189Z,81.02
2019-05-14T23:09:38.705Z,80.60
2019-05-14T23:12:12.135Z,81.12
2019-05-14T23:14:41.261Z,81.24
2019-05-14T23:17:10.314Z,81.14
2019-05-14T23:19:39.374Z,81.41
2019-05-14T23:22:11.430Z,80.98
2019-05-14T23:24:40.490Z,80.98
2019-05-14T23:27:09.516Z,81.93
2019-05-14T23:29:38.635Z,81.90
2019-05-14T23:32:08.218Z,82.28
2019-05-14T23:34:38.110Z,82.78
2019-05-14T23:37:08.236Z,83.02
2019-05-14T23:39:38.361Z,83.10
2019-05-14T23:42:09.124Z,83.02
2019-05-14T23:44:38.357Z,83.20
2019-05-14T23:47:08.323Z,83.39
2019-05-14T23:49:38.923Z,83.16
2019-05-14T23:52:09.204Z,83.57
2019-05-14T23:54:38.734Z,84.50
2019-05-14T23:57:08.904Z,84.83
2019-05-14T23:59:39.602Z,84.59
